Time;durP1;ratioP1;P1;durP2;ratioP2;P2;SDS_P1;SDS_P2;PMS_P1;PMS_P2;Temp;Humidity;BMP_temperature;BMP_pressure;BME280_temperature;BME280_humidity;BME280_pressure;Samples;Min_cycle;Max_cycle;Signal;HPM_P1;HPM_P2
2022/10/14 00:07:49;;;;;;;29.1;38.9;;;;;;;8.7;87.6;99120;;;;
2022/10/14 00:18:49;;;;;;;29.1;38.9;;;;;;;8.5;86.7;99120;;;;
2022/10/14 00:28:49;;;;;;;28.1;37.3;;;;;;;8.6;86.3;99120;;;;
2022/10/14 00:39:49;;;;;;;28.1;37.3;;;;;;;8.5;86;99110;;;;
2022/10/14 00:49:49;;;;;;;28.1;37.3;;;;;;;8.5;85.9;99110;;;;
2022/10/14 01:00:49;;;;;;;29.4;36.4;;;;;;;8.5;86;99100;;;;
2022/10/14 01:10:49;;;;;;;29.4;36.4;;;;;;;8.5;86.1;99090;;;;
2022/10/14 01:21:49;;;;;;;29.4;36.4;;;;;;;8.5;86.1;99090;;;;
2022/10/14 01:31:49;;;;;;;29.6;37.8;;;;;;;8.5;86;99090;;;;
2022/10/14 01:41:50;;;;;;;29.6;37.8;;;;;;;8.6;86.3;99090;;;;
2022/10/14 01:52:49;;;;;;;29.6;37.8;;;;;;;8.6;86.1;99080;;;;
2022/10/14 02:03:49;;;;;;;28;38.1;;;;;;;8.5;85.9;99080;;;;
2022/10/14 02:14:49;;;;;;;28;38.1;;;;;;;8.5;85.8;99070;;;;
2022/10/14 02:25:49;;;;;;;27.7;35.5;;;;;;;8.4;86;99060;;;;
2022/10/14 02:36:49;;;;;;;27.7;35.5;;;;;;;8.3;86.3;99050;;;;
2022/10/14 02:46:49;;;;;;;27.7;35.5;;;;;;;8.3;87;99040;;;;
2022/10/14 02:57:49;;;;;;;26.1;30.4;;;;;;;8.4;87.1;99040;;;;
2022/10/14 03:07:49;;;;;;;26.1;30.4;;;;;;;8.5;87.2;99040;;;;
2022/10/14 03:18:49;;;;;;;26.1;30.4;;;;;;;8.5;87;99030;;;;
2022/10/14 03:28:49;;;;;;;28.2;35.4;;;;;;;8.4;86.6;99040;;;;
2022/10/14 03:39:49;;;;;;;28.2;35.4;;;;;;;8.4;86.6;99030;;;;
2022/10/14 03:50:49;;;;;;;28.2;35.4;;;;;;;8.4;87.1;99020;;;;
2022/10/14 04:01:49;;;;;;;27.6;34.7;;;;;;;8.5;87.2;99010;;;;
2022/10/14 04:12:49;;;;;;;27.6;34.7;;;;;;;8.5;87.1;99010;;;;
2022/10/14 04:23:49;;;;;;;27.6;34.7;;;;;;;8.6;87;99000;;;;
2022/10/14 04:33:49;;;;;;;24.3;30.2;;;;;;;8.6;87;99000;;;;
2022/10/14 04:43:49;;;;;;;24.3;30.2;;;;;;;8.7;87;98990;;;;
2022/10/14 04:54:49;;;;;;;24.3;30.2;;;;;;;8.8;86.8;98990;;;;
2022/10/14 05:04:49;;;;;;;25.9;37.3;;;;;;;8.9;86.9;98990;;;;
2022/10/14 05:14:49;;;;;;;25.9;37.3;;;;;;;8.9;87;98990;;;;
2022/10/14 05:25:50;;;;;;;26.9;34;;;;;;;9;87;98990;;;;
2022/10/14 05:35:49;;;;;;;26.9;34;;;;;;;9.2;86.6;98990;;;;
2022/10/14 05:46:51;;;;;;;26.9;34;;;;;;;9;86.5;98990;;;;
2022/10/14 05:57:49;;;;;;;26.7;34.2;;;;;;;8.9;86.9;98980;;;;
2022/10/14 06:08:49;;;;;;;26.7;34.2;;;;;;;9;87.5;98980;;;;
2022/10/14 06:18:49;;;;;;;26.7;34.2;;;;;;;9.3;87.5;98990;;;;
2022/10/14 06:29:49;;;;;;;26.7;35.8;;;;;;;9.9;87.4;98990;;;;
2022/10/14 06:39:49;;;;;;;26.7;35.8;;;;;;;10.4;87;98990;;;;
2022/10/14 06:49:49;;;;;;;26.7;35.8;;;;;;;10.6;85.7;98990;;;;
2022/10/14 07:00:49;;;;;;;28.9;34.6;;;;;;;10.8;84.4;99000;;;;
2022/10/14 07:10:49;;;;;;;28.9;34.6;;;;;;;11;84.1;98990;;;;
2022/10/14 07:21:49;;;;;;;28.9;34.6;;;;;;;11.4;83.5;98990;;;;
2022/10/14 07:32:49;;;;;;;31.9;41.6;;;;;;;12;83.8;98990;;;;
2022/10/14 07:43:49;;;;;;;31.9;41.6;;;;;;;12.5;82.1;98990;;;;
2022/10/14 07:54:49;;;;;;;31.9;41.6;;;;;;;13;81.4;98980;;;;
2022/10/14 08:04:49;;;;;;;28;34.9;;;;;;;13.2;80.3;98990;;;;
2022/10/14 08:14:49;;;;;;;28;34.9;;;;;;;13.5;79.9;98980;;;;
2022/10/14 08:24:49;;;;;;;28;34.9;;;;;;;13.7;79.8;98980;;;;
2022/10/14 08:35:49;;;;;;;29.1;33.7;;;;;;;14.4;78.7;98980;;;;
2022/10/14 08:45:49;;;;;;;29.1;33.7;;;;;;;14.7;76.8;98980;;;;
2022/10/14 08:56:49;;;;;;;30;34.6;;;;;;;15.1;76;98970;;;;
2022/10/14 09:07:49;;;;;;;30;34.6;;;;;;;15.4;75;98960;;;;
2022/10/14 09:17:49;;;;;;;30;34.6;;;;;;;16;74.6;98970;;;;
2022/10/14 09:27:49;;;;;;;29.8;35.2;;;;;;;16.4;72.8;98970;;;;
2022/10/14 09:38:51;;;;;;;29.8;35.2;;;;;;;16.6;72.5;98970;;;;
2022/10/14 09:48:49;;;;;;;29.8;35.2;;;;;;;17;72.6;98960;;;;
2022/10/14 09:58:49;;;;;;;30.5;38.4;;;;;;;17.3;71.8;98960;;;;
2022/10/14 10:09:50;;;;;;;30.5;38.4;;;;;;;17.9;70.4;98950;;;;
2022/10/14 10:19:50;;;;;;;30.5;38.4;;;;;;;18.2;69.1;98950;;;;
2022/10/14 10:30:49;;;;;;;29.5;42.5;;;;;;;18.3;68;98950;;;;
2022/10/14 10:40:49;;;;;;;29.5;42.5;;;;;;;18.2;67.6;98940;;;;
2022/10/14 10:50:52;;;;;;;29.5;42.5;;;;;;;18.2;68.3;98940;;;;
2022/10/14 11:01:49;;;;;;;25.6;31.2;;;;;;;18.3;67.6;98930;;;;
2022/10/14 11:12:11;;;;;;;25.6;31.2;;;;;;;18.5;66.7;98920;;;;
2022/10/14 11:22:49;;;;;;;25.6;31.2;;;;;;;18.7;66.4;98910;;;;
2022/10/14 11:32:49;;;;;;;21.6;26.6;;;;;;;18.5;66;98910;;;;
2022/10/14 11:43:49;;;;;;;21.6;26.6;;;;;;;18;65.8;98910;;;;
2022/10/14 11:54:49;;;;;;;21.6;26.6;;;;;;;18.1;67.4;98900;;;;
2022/10/14 12:04:49;;;;;;;16.8;22.1;;;;;;;18;67.3;98900;;;;
2022/10/14 12:14:49;;;;;;;16.8;22.1;;;;;;;17.8;67.7;98890;;;;
2022/10/14 12:24:49;;;;;;;16.8;22.1;;;;;;;17.7;70.3;98890;;;;
2022/10/14 12:34:49;;;;;;;16.3;22.2;;;;;;;17.5;70.9;98890;;;;
2022/10/14 12:45:49;;;;;;;16.3;22.2;;;;;;;17.3;70.8;98890;;;;
2022/10/14 12:56:49;;;;;;;16.4;22.4;;;;;;;17.1;72.4;98900;;;;
2022/10/14 13:07:49;;;;;;;16.4;22.4;;;;;;;16.8;74.2;98900;;;;
2022/10/14 13:18:49;;;;;;;16.4;22.4;;;;;;;16.5;76.6;98900;;;;
2022/10/14 13:29:49;;;;;;;18.5;24.2;;;;;;;17.2;76.1;98890;;;;
2022/10/14 13:40:49;;;;;;;18.5;24.2;;;;;;;17.2;73.9;98880;;;;
2022/10/14 13:50:49;;;;;;;18.5;24.2;;;;;;;17.3;73.5;98870;;;;
2022/10/14 14:01:49;;;;;;;21.2;28.4;;;;;;;17.4;74.4;98870;;;;
2022/10/14 14:11:49;;;;;;;21.2;28.4;;;;;;;17.7;71.8;98860;;;;
2022/10/14 14:21:49;;;;;;;21.2;28.4;;;;;;;17.6;72.1;98860;;;;
2022/10/14 14:32:49;;;;;;;19.9;28.2;;;;;;;17.5;73;98860;;;;
2022/10/14 14:42:49;;;;;;;19.9;28.2;;;;;;;17.1;73.5;98850;;;;
2022/10/14 14:52:50;;;;;;;19.9;28.2;;;;;;;16.9;74.1;98850;;;;
2022/10/14 15:03:49;;;;;;;19.6;25.4;;;;;;;16.7;74.2;98850;;;;
2022/10/14 15:13:49;;;;;;;19.6;25.4;;;;;;;16.2;75.2;98850;;;;
2022/10/14 15:24:49;;;;;;;19.6;25.4;;;;;;;15.6;76.2;98850;;;;
2022/10/14 15:34:51;;;;;;;22.6;28.3;;;;;;;15.1;76.6;98840;;;;
2022/10/14 15:47:17;;;;;;;22.6;28.3;;;;;;;14.5;78.4;98840;;;;
2022/10/14 15:55:51;;;;;;;26.2;34.4;;;;;;;14;81.4;98840;;;;
2022/10/14 16:06:49;;;;;;;26.2;34.4;;;;;;;13.7;81.4;98850;;;;
2022/10/14 16:17:49;;;;;;;26.2;34.4;;;;;;;13.4;82.8;98850;;;;
2022/10/14 16:28:49;;;;;;;25.8;31;;;;;;;13;82.3;98860;;;;
2022/10/14 16:38:49;;;;;;;25.8;31;;;;;;;12.9;84.8;98870;;;;
2022/10/14 16:49:50;;;;;;;25.8;31;;;;;;;12.7;85.7;98860;;;;
2022/10/14 17:00:49;;;;;;;37.6;45.2;;;;;;;12.7;85.9;98870;;;;
2022/10/14 17:10:49;;;;;;;37.6;45.2;;;;;;;12.6;86.4;98870;;;;
2022/10/14 17:21:49;;;;;;;37.6;45.2;;;;;;;12.7;87.8;98880;;;;
2022/10/14 17:32:49;;;;;;;39.9;52.5;;;;;;;12.9;87.6;98870;;;;
2022/10/14 17:42:49;;;;;;;39.9;52.5;;;;;;;12.9;87.5;98870;;;;
2022/10/14 17:52:49;;;;;;;39.9;52.5;;;;;;;13;86.9;98880;;;;
2022/10/14 18:03:49;;;;;;;37.5;46.1;;;;;;;12.9;86.5;98880;;;;
2022/10/14 18:14:49;;;;;;;37.5;46.1;;;;;;;13;86.3;98870;;;;
2022/10/14 18:24:49;;;;;;;37.5;46.1;;;;;;;12.9;86.4;98870;;;;
2022/10/14 18:34:49;;;;;;;26.1;37.5;;;;;;;12.9;86.1;98860;;;;
2022/10/14 18:44:50;;;;;;;26.1;37.5;;;;;;;13;85.8;98860;;;;
2022/10/14 18:54:49;;;;;;;26.1;37.5;;;;;;;12.9;85.8;98860;;;;
2022/10/14 19:05:50;;;;;;;22.4;30.1;;;;;;;13;85.4;98870;;;;
2022/10/14 19:15:52;;;;;;;22.4;30.1;;;;;;;12.9;85.3;98870;;;;
2022/10/14 19:25:49;;;;;;;20.3;23.4;;;;;;;13.1;84.8;98870;;;;
2022/10/14 19:36:49;;;;;;;20.3;23.4;;;;;;;13.2;84.4;98860;;;;
2022/10/14 19:47:50;;;;;;;20.3;23.4;;;;;;;13.3;84.2;98860;;;;
2022/10/14 19:58:49;;;;;;;17.8;21.3;;;;;;;13.4;84;98850;;;;
2022/10/14 20:09:49;;;;;;;17.8;21.3;;;;;;;13.4;83.6;98850;;;;
2022/10/14 20:20:49;;;;;;;17.8;21.3;;;;;;;13.3;83.5;98850;;;;
2022/10/14 20:31:49;;;;;;;18.3;21.1;;;;;;;13.3;83.4;98850;;;;
2022/10/14 20:41:49;;;;;;;18.3;21.1;;;;;;;13.2;83.5;98850;;;;
2022/10/14 20:52:49;;;;;;;18.3;21.1;;;;;;;13.1;83.8;98850;;;;
2022/10/14 21:03:49;;;;;;;18.6;21.5;;;;;;;13;84.5;98840;;;;
2022/10/14 21:14:49;;;;;;;18.6;21.5;;;;;;;13.1;84.3;98830;;;;
2022/10/14 21:24:49;;;;;;;17.3;19.6;;;;;;;13;84.4;98820;;;;
2022/10/14 21:34:49;;;;;;;17.3;19.6;;;;;;;13.1;84.4;98820;;;;
2022/10/14 21:45:49;;;;;;;17.3;19.6;;;;;;;13.1;84.2;98810;;;;
2022/10/14 21:56:49;;;;;;;19.2;23.4;;;;;;;13.1;84.3;98800;;;;
2022/10/14 22:06:49;;;;;;;19.2;23.4;;;;;;;13.1;84.1;98800;;;;
2022/10/14 22:17:49;;;;;;;19.2;23.4;;;;;;;13.1;84;98800;;;;
2022/10/14 22:27:49;;;;;;;16.4;20.7;;;;;;;13.1;83.8;98790;;;;
2022/10/14 22:38:49;;;;;;;16.4;20.7;;;;;;;13;83.8;98790;;;;
2022/10/14 22:48:50;;;;;;;16.4;20.7;;;;;;;12.8;83.9;98790;;;;
2022/10/14 22:59:49;;;;;;;26.8;32.7;;;;;;;12.4;83.8;98790;;;;
2022/10/14 23:09:49;;;;;;;26.8;32.7;;;;;;;12.1;83.9;98800;;;;
2022/10/14 23:20:49;;;;;;;26.8;32.7;;;;;;;11.7;83.9;98790;;;;
2022/10/14 23:31:49;;;;;;;17.7;23.1;;;;;;;11.4;84;98790;;;;
2022/10/14 23:42:49;;;;;;;17.7;23.1;;;;;;;11.2;84.5;98780;;;;
2022/10/14 23:53:50;;;;;;;17.7;23.1;;;;;;;11.2;85.3;98780;;;;
